Time;durP1;ratioP1;P1;durP2;ratioP2;P2;SDS_P1;SDS_P2;PMS_P1;PMS_P2;Temp;Humidity;BMP_temperature;BMP_pressure;BME280_temperature;BME280_humidity;BME280_pressure;Samples;Min_cycle;Max_cycle;Signal;HPM_P1;HPM_P2
2021/04/08 00:01:50;;;;;;;5.47;3.58;;;;;;;-0.03;85.72;95771.47;4991071;28;20026;-59
2021/04/08 00:04:15;;;;;;;8.18;4.22;;;;;;;0.05;85.33;95800.94;4989308;28;20504;-60
2021/04/08 00:06:41;;;;;;;6.78;4.18;;;;;;;0.02;85.77;95796.97;5004504;28;20128;-59
2021/04/08 00:09:06;;;;;;;5.75;4.07;;;;;;;0.41;84.36;95785.16;4989368;28;20038;-60
2021/04/08 00:11:32;;;;;;;5.05;3.78;;;;;;;0.12;84.57;95791.22;4989116;28;20053;-59
2021/04/08 00:13:57;;;;;;;7.72;4.68;;;;;;;0.13;84.62;95777.09;4989181;28;20118;-60
2021/04/08 00:16:22;;;;;;;6.90;3.88;;;;;;;-0.31;84.75;95730.22;4991015;28;20105;-60
2021/04/08 00:18:48;;;;;;;5.45;4.47;;;;;;;0.30;83.58;95774.66;4988833;28;20100;-60
2021/04/08 00:21:13;;;;;;;4.93;4.03;;;;;;;-0.18;85.54;95765.84;4988942;28;20042;-60
2021/04/08 00:23:38;;;;;;;5.60;4.40;;;;;;;0.22;84.64;95767.94;4988689;28;20038;-60
2021/04/08 00:26:04;;;;;;;4.22;3.15;;;;;;;-0.16;85.12;95774.25;4988950;28;20085;-60
2021/04/08 00:28:30;;;;;;;5.25;4.25;;;;;;;0.38;85.18;95816.22;4990652;28;20018;-60
2021/04/08 00:30:55;;;;;;;6.45;3.92;;;;;;;0.20;84.84;95796.13;4988848;28;20599;-61
2021/04/08 00:33:21;;;;;;;5.75;4.35;;;;;;;-0.04;84.97;95772.50;5003838;28;20094;-61
2021/04/08 00:35:47;;;;;;;5.18;3.72;;;;;;;0.04;86.15;95813.22;4988802;28;20042;-60
2021/04/08 00:38:13;;;;;;;7.22;3.67;;;;;;;-0.10;85.29;95798.75;4988484;28;20057;-61
2021/04/08 00:40:40;;;;;;;6.03;4.18;;;;;;;0.10;85.31;95799.25;4990325;28;20469;-60
2021/04/08 00:43:05;;;;;;;6.78;3.72;;;;;;;0.03;85.84;95788.09;4988219;28;20129;-60
2021/04/08 00:45:32;;;;;;;4.90;4.13;;;;;;;0.38;85.31;95798.69;5003515;28;20130;-61
2021/04/08 00:47:57;;;;;;;6.18;3.10;;;;;;;-0.15;84.84;95757.56;4988302;28;20074;-60
2021/04/08 00:50:23;;;;;;;7.80;4.88;;;;;;;-0.01;84.36;95739.88;5002187;28;20109;-60
2021/04/08 00:52:58;;;;;;;4.18;3.60;;;;;;;0.31;83.44;95802.41;5005374;28;20019;-60
2021/04/08 00:55:27;;;;;;;6.00;4.28;;;;;;;0.41;82.19;95769.47;4989382;28;20034;-61
2021/04/08 00:57:55;;;;;;;8.77;3.65;;;;;;;0.34;81.88;95781.84;4988525;28;20030;-60
2021/04/08 01:00:22;;;;;;;5.40;3.40;;;;;;;0.34;81.47;95747.03;4988805;28;20042;-60
2021/04/08 01:02:48;;;;;;;5.82;3.75;;;;;;;0.52;80.61;95779.16;4988317;28;20035;-60
2021/04/08 01:05:13;;;;;;;5.18;2.83;;;;;;;0.58;80.19;95792.38;4988562;28;20460;-60
2021/04/08 01:07:39;;;;;;;8.07;3.70;;;;;;;0.52;80.28;95791.44;5005342;28;20062;-60
2021/04/08 01:10:09;;;;;;;5.00;2.78;;;;;;;0.49;80.11;95792.69;5005395;28;20173;-60
2021/04/08 01:12:35;;;;;;;4.05;3.40;;;;;;;0.64;79.69;95779.16;4991748;28;20488;-61
2021/04/08 01:15:05;;;;;;;6.78;3.10;;;;;;;0.66;78.61;95776.31;4992012;28;20035;-60
2021/04/08 01:17:50;;;;;;;5.82;3.35;;;;;;;0.73;77.54;95756.06;4991984;28;20046;-61
2021/04/08 01:20:24;;;;;;;3.67;3.03;;;;;;;0.95;77.23;95795.59;4991937;28;20412;-59
2021/04/08 01:23:07;;;;;;;3.50;3.20;;;;;;;0.81;77.51;95797.63;4993552;28;20113;-60
2021/04/08 01:25:48;;;;;;;5.65;3.47;;;;;;;0.93;77.43;95798.44;4992403;28;20046;-59
2021/04/08 01:28:25;;;;;;;4.07;2.67;;;;;;;0.54;78.10;95788.59;4991748;28;20043;-59
2021/04/08 01:30:54;;;;;;;4.07;2.90;;;;;;;0.65;77.45;95779.97;5006860;28;20050;-60
2021/04/08 01:33:31;;;;;;;4.53;2.75;;;;;;;0.87;76.16;95795.91;4991334;28;20042;-60
2021/04/08 01:36:01;;;;;;;3.50;2.28;;;;;;;0.26;76.03;95756.00;4991745;28;20042;-59
2021/04/08 01:38:30;;;;;;;5.60;2.72;;;;;;;0.39;76.73;95809.94;5006428;28;20396;-60
2021/04/08 01:40:57;;;;;;;3.72;2.35;;;;;;;0.43;76.26;95783.13;4991718;28;20053;-59
2021/04/08 01:43:25;;;;;;;2.55;2.35;;;;;;;0.59;76.30;95807.84;4993124;28;20041;-59
2021/04/08 01:45:54;;;;;;;5.40;2.60;;;;;;;0.34;76.39;95794.13;4991416;28;20126;-59
2021/04/08 01:48:20;;;;;;;3.33;2.30;;;;;;;0.24;76.75;95803.31;5006176;28;20054;-60
2021/04/08 01:50:46;;;;;;;6.03;3.05;;;;;;;-0.29;77.74;95722.16;4991380;28;20392;-60
2021/04/08 01:53:14;;;;;;;7.30;2.25;;;;;;;0.17;77.29;95804.44;4991129;28;20459;-60
2021/04/08 01:55:42;;;;;;;5.63;2.50;;;;;;;0.21;77.35;95782.84;4993319;28;20077;-59
2021/04/08 01:58:08;;;;;;;3.90;2.28;;;;;;;0.15;76.21;95752.31;4991213;28;20046;-58
2021/04/08 02:00:35;;;;;;;7.45;3.60;;;;;;;0.41;76.78;95798.25;4991393;28;20058;-59
2021/04/08 02:03:02;;;;;;;6.60;3.00;;;;;;;0.06;76.67;95753.66;4991118;28;20030;-59
2021/04/08 02:05:28;;;;;;;4.40;3.50;;;;;;;0.17;75.84;95746.88;4991228;28;20491;-59
2021/04/08 02:07:56;;;;;;;3.10;2.80;;;;;;;0.49;75.63;95820.69;4991003;28;20042;-61
2021/04/08 02:10:23;;;;;;;3.72;2.45;;;;;;;0.43;75.55;95817.13;5008155;28;20080;-60
2021/04/08 02:12:50;;;;;;;3.47;2.03;;;;;;;-0.03;74.65;95776.72;4989846;28;20049;-60
2021/04/08 02:15:20;;;;;;;5.38;2.13;;;;;;;0.06;75.01;95813.03;5005194;28;20092;-60
2021/04/08 02:17:50;;;;;;;3.58;2.78;;;;;;;0.17;75.43;95773.03;4990751;28;20130;-61
2021/04/08 02:20:18;;;;;;;3.97;2.47;;;;;;;0.67;73.82;95802.28;5005711;28;20078;-59
2021/04/08 02:22:48;;;;;;;5.38;2.58;;;;;;;0.43;73.83;95804.06;4992129;28;20547;-60
2021/04/08 02:25:16;;;;;;;12.02;2.67;;;;;;;0.40;73.89;95780.13;4991041;28;20042;-61
2021/04/08 02:27:43;;;;;;;4.93;2.47;;;;;;;0.36;74.85;95808.59;4990450;28;20500;-60
2021/04/08 02:30:11;;;;;;;3.72;2.50;;;;;;;0.21;74.42;95763.72;4990905;28;20137;-60
2021/04/08 02:32:39;;;;;;;4.47;2.85;;;;;;;0.73;73.63;95801.38;4990541;28;20047;-60
2021/04/08 02:35:13;;;;;;;4.30;3.22;;;;;;;0.22;73.88;95749.63;5005999;28;20126;-60
2021/04/08 02:37:39;;;;;;;6.47;2.85;;;;;;;0.43;74.62;95798.03;4992373;28;20042;-60
2021/04/08 02:40:07;;;;;;;5.38;2.65;;;;;;;0.61;74.00;95816.25;5005739;28;20408;-60
2021/04/08 02:42:32;;;;;;;2.47;2.00;;;;;;;0.69;72.84;95807.28;4988930;28;20034;-60
2021/04/08 02:44:57;;;;;;;3.72;2.22;;;;;;;0.43;73.09;95804.06;4990323;28;20125;-60
2021/04/08 02:47:23;;;;;;;7.05;2.72;;;;;;;0.41;72.73;95785.16;4990268;28;20061;-60
2021/04/08 02:49:48;;;;;;;6.20;2.85;;;;;;;0.60;72.55;95824.34;4992165;28;20018;-61
2021/04/08 02:52:17;;;;;;;12.48;3.10;;;;;;;0.56;73.20;95834.44;4990124;28;20100;-60
2021/04/08 02:54:53;;;;;;;4.78;2.60;;;;;;;0.07;73.88;95780.63;5005196;28;20042;-61
2021/04/08 02:57:24;;;;;;;6.07;2.67;;;;;;;0.31;74.95;95844.28;5005053;28;20084;-61
2021/04/08 02:59:56;;;;;;;6.93;3.55;;;;;;;0.11;74.55;95805.31;4990349;28;20034;-61
2021/04/08 03:02:29;;;;;;;7.32;3.10;;;;;;;0.28;74.25;95800.25;5004788;28;20069;-62
2021/04/08 03:04:57;;;;;;;9.25;3.83;;;;;;;0.41;74.24;95827.03;4989854;28;20026;-61
2021/04/08 03:07:27;;;;;;;8.73;3.83;;;;;;;0.62;74.09;95823.13;4991591;28;20026;-60
2021/04/08 03:09:54;;;;;;;6.68;3.92;;;;;;;0.68;73.88;95864.09;4989862;28;20034;-61
2021/04/08 03:12:21;;;;;;;8.75;4.05;;;;;;;0.68;73.60;95840.53;4988354;28;20042;-60
2021/04/08 03:14:50;;;;;;;24.20;5.35;;;;;;;0.63;72.58;95795.09;4989916;28;20030;-61
2021/04/08 03:17:26;;;;;;;6.22;4.40;;;;;;;0.49;73.68;95839.78;4989612;28;20034;-61
2021/04/08 03:19:53;;;;;;;7.68;4.40;;;;;;;0.45;73.88;95832.59;4991517;28;20393;-60
2021/04/08 03:22:21;;;;;;;8.55;4.75;;;;;;;0.71;73.51;95834.84;4989873;28;20492;-61
2021/04/08 03:24:50;;;;;;;7.50;3.70;;;;;;;0.58;74.75;95866.47;4989637;28;20038;-60
2021/04/08 03:27:18;;;;;;;6.72;4.00;;;;;;;0.35;74.91;95816.66;5004596;28;20620;-60
2021/04/08 03:29:44;;;;;;;5.03;4.15;;;;;;;0.60;75.28;95861.78;5004250;28;20116;-61
2021/04/08 03:32:09;;;;;;;6.10;3.30;;;;;;;0.64;75.56;95878.66;4988826;28;20022;-61
2021/04/08 03:34:39;;;;;;;8.45;4.07;;;;;;;0.20;76.97;95843.22;5006267;28;20033;-62
2021/04/08 03:37:06;;;;;;;10.13;4.63;;;;;;;0.42;76.92;95854.00;4989209;28;20196;-61
2021/04/08 03:39:32;;;;;;;7.85;4.20;;;;;;;0.05;77.71;95821.88;4989531;28;20149;-60
2021/04/08 03:41:58;;;;;;;6.45;4.57;;;;;;;-0.12;78.75;95816.47;4989247;28;20157;-60
2021/04/08 03:44:25;;;;;;;11.77;5.10;;;;;;;0.46;79.22;95892.59;5004186;28;20073;-61
2021/04/08 03:46:57;;;;;;;6.22;4.53;;;;;;;0.05;80.54;95869.75;4990930;28;20026;-61
2021/04/08 03:49:23;;;;;;;7.13;4.80;;;;;;;-0.08;80.63;95865.47;4989961;28;20089;-61
2021/04/08 03:51:49;;;;;;;7.70;5.22;;;;;;;-0.08;80.65;95849.00;4988980;28;20156;-61
2021/04/08 03:54:15;;;;;;;4.63;3.75;;;;;;;0.07;81.23;95885.25;5004084;28;20042;-61
2021/04/08 03:56:47;;;;;;;11.27;4.43;;;;;;;-0.18;81.66;95898.38;4988692;28;20035;-60
2021/04/08 03:59:14;;;;;;;6.60;4.55;;;;;;;0.14;81.26;95901.66;5003795;28;20046;-61
2021/04/08 04:01:40;;;;;;;9.98;5.22;;;;;;;-0.26;81.58;95852.41;4990935;28;20062;-60
2021/04/08 04:04:09;;;;;;;9.90;5.22;;;;;;;0.01;81.19;95868.63;5003938;28;20062;-60
2021/04/08 04:06:36;;;;;;;8.73;4.15;;;;;;;0.08;81.55;95899.91;4989086;28;20096;-60
2021/04/08 04:09:04;;;;;;;5.03;3.90;;;;;;;-0.08;81.43;95881.19;4988841;28;20569;-60
2021/04/08 04:11:34;;;;;;;11.27;5.13;;;;;;;-0.07;81.40;95880.16;4988840;28;20035;-61
2021/04/08 04:14:01;;;;;;;5.35;4.70;;;;;;;0.32;80.81;95903.47;5003974;28;20037;-61
2021/04/08 04:16:29;;;;;;;9.93;4.13;;;;;;;-0.03;81.69;95915.31;4990877;28;20088;-61
2021/04/08 04:18:54;;;;;;;6.00;4.30;;;;;;;0.09;81.35;95880.56;4988818;28;20054;-60
2021/04/08 04:21:19;;;;;;;11.32;4.47;;;;;;;0.16;79.79;95821.16;4988756;28;20039;-61
2021/04/08 04:23:45;;;;;;;7.75;4.18;;;;;;;0.62;78.94;95888.56;5003846;28;20480;-61
2021/04/08 04:26:12;;;;;;;5.82;4.07;;;;;;;0.24;79.30;95884.41;4989112;28;20036;-61
2021/04/08 04:28:37;;;;;;;7.40;4.72;;;;;;;0.44;79.42;95891.22;4990515;28;20038;-61
2021/04/08 04:31:03;;;;;;;6.80;3.88;;;;;;;0.37;79.12;95906.22;4989087;28;20035;-61
2021/04/08 04:33:28;;;;;;;7.07;4.25;;;;;;;0.29;78.04;95849.72;4988652;28;20043;-60
2021/04/08 04:35:54;;;;;;;6.03;4.30;;;;;;;0.59;77.55;95886.38;4988871;28;20089;-60
2021/04/08 04:38:19;;;;;;;4.40;3.67;;;;;;;0.23;77.88;95876.78;4988671;28;20096;-61
2021/04/08 04:40:45;;;;;;;5.20;3.72;;;;;;;0.24;78.43;95889.66;4989424;28;20080;-60
2021/04/08 04:43:10;;;;;;;6.35;3.90;;;;;;;0.46;77.67;95892.59;4988486;28;20074;-60
2021/04/08 04:45:35;;;;;;;7.30;4.00;;;;;;;0.45;77.43;95921.59;4991407;28;20085;-61
2021/04/08 04:48:01;;;;;;;7.60;3.67;;;;;;;0.69;76.26;95906.78;4991744;28;20042;-61
2021/04/08 04:50:28;;;;;;;11.30;4.07;;;;;;;0.57;76.19;95898.09;4992378;28;20038;-61
2021/04/08 04:52:53;;;;;;;8.05;3.75;;;;;;;0.61;76.67;95947.16;4992400;28;20023;-63
2021/04/08 04:55:18;;;;;;;7.95;3.67;;;;;;;0.77;76.24;95922.19;5009518;28;20499;-60
2021/04/08 04:57:44;;;;;;;5.93;4.70;;;;;;;1.14;75.00;95914.19;4992039;28;20046;-60
2021/04/08 05:00:09;;;;;;;10.35;4.03;;;;;;;0.93;74.44;95905.06;4992355;28;20539;-61
2021/04/08 05:02:35;;;;;;;7.57;4.70;;;;;;;1.15;74.39;95907.94;4992007;28;20042;-61
2021/04/08 05:05:00;;;;;;;6.25;3.67;;;;;;;1.03;72.57;95902.69;4992269;28;20088;-60
2021/04/08 05:07:25;;;;;;;4.32;3.55;;;;;;;0.38;73.81;95913.84;4994041;28;20049;-61
2021/04/08 05:09:51;;;;;;;10.57;4.30;;;;;;;0.52;74.30;95944.06;5007249;28;20030;-61
2021/04/08 05:12:16;;;;;;;7.07;3.83;;;;;;;0.36;74.49;95917.69;4991760;28;20049;-61
2021/04/08 05:14:41;;;;;;;9.45;3.92;;;;;;;0.13;75.04;95900.84;4991982;28;20034;-60
2021/04/08 05:17:07;;;;;;;5.05;3.80;;;;;;;0.21;75.66;95934.56;4991722;28;20029;-61
2021/04/08 05:19:32;;;;;;;4.68;3.75;;;;;;;-0.12;75.49;95885.25;4993767;28;20101;-60
2021/04/08 05:21:58;;;;;;;5.47;3.35;;;;;;;0.17;75.88;95935.22;4991711;28;20137;-60
2021/04/08 05:24:23;;;;;;;5.03;4.38;;;;;;;0.39;76.66;95953.88;4991357;28;20097;-60
2021/04/08 05:26:49;;;;;;;7.30;4.30;;;;;;;0.22;76.43;95940.59;5006283;28;20077;-61
2021/04/08 05:29:14;;;;;;;8.85;4.70;;;;;;;0.48;75.40;95927.19;4991915;28;20095;-60
2021/04/08 05:31:39;;;;;;;5.47;3.90;;;;;;;0.47;75.90;95966.69;4993500;28;20034;-61
2021/04/08 05:34:05;;;;;;;5.88;3.78;;;;;;;0.21;76.40;95923.31;4990028;28;20038;-61
2021/04/08 05:36:30;;;;;;;5.82;3.95;;;;;;;0.33;76.26;95936.47;4991589;28;20034;-61
2021/04/08 05:38:56;;;;;;;6.45;4.45;;;;;;;0.24;75.72;95920.25;4990919;28;20381;-61
2021/04/08 05:41:21;;;;;;;5.40;3.67;;;;;;;0.17;76.45;95936.03;4991345;28;20564;-64
2021/04/08 05:43:46;;;;;;;4.65;3.30;;;;;;;0.40;75.72;95981.66;4993282;28;20105;-61
2021/04/08 05:46:12;;;;;;;7.00;3.97;;;;;;;0.18;76.19;95936.81;4991635;28;20133;-60
2021/04/08 05:48:38;;;;;;;4.82;2.72;;;;;;;0.32;75.76;95967.06;5006093;28;20038;-61
2021/04/08 05:51:04;;;;;;;6.18;3.70;;;;;;;0.27;76.21;95972.16;5006274;28;20197;-60
2021/04/08 05:53:29;;;;;;;4.72;3.20;;;;;;;0.50;76.09;95972.25;4991053;28;20052;-60
2021/04/08 05:55:55;;;;;;;6.18;3.90;;;;;;;0.39;76.36;95953.88;4989810;28;20455;-60
2021/04/08 05:58:20;;;;;;;6.13;3.22;;;;;;;0.29;75.42;95949.16;5008025;28;20026;-59
2021/04/08 06:00:46;;;;;;;4.70;3.38;;;;;;;0.79;75.24;95972.53;4991149;28;20173;-61
2021/04/08 06:03:11;;;;;;;8.18;3.83;;;;;;;0.81;74.59;95980.16;4991669;28;20438;-61
2021/04/08 06:05:36;;;;;;;5.70;3.63;;;;;;;0.94;73.71;95977.38;4992332;28;20124;-61
2021/04/08 06:08:02;;;;;;;5.25;3.05;;;;;;;0.75;73.95;95990.50;4991982;28;20030;-61
2021/04/08 06:10:28;;;;;;;6.15;3.78;;;;;;;0.93;74.05;95987.03;4993899;28;20030;-60
2021/04/08 06:12:54;;;;;;;4.38;3.55;;;;;;;1.26;73.67;96007.53;4991838;28;20089;-61
2021/04/08 06:15:20;;;;;;;6.13;2.80;;;;;;;0.70;74.31;95986.94;5002009;28;20053;-61
2021/04/08 06:17:45;;;;;;;3.55;2.90;;;;;;;0.80;75.06;96018.63;5002241;28;20134;-63
2021/04/08 06:20:11;;;;;;;6.60;2.70;;;;;;;0.83;74.04;95996.47;5011045;28;20100;-62
2021/04/08 06:22:37;;;;;;;5.03;2.97;;;;;;;1.34;73.39;96008.25;5013044;28;20497;-62
2021/04/08 06:25:03;;;;;;;3.28;2.95;;;;;;;1.12;73.43;96021.84;5011390;28;20041;-62
2021/04/08 06:27:30;;;;;;;4.68;3.10;;;;;;;1.21;73.13;95985.66;5011061;28;20458;-63
2021/04/08 06:29:55;;;;;;;5.75;3.22;;;;;;;1.37;73.28;96026.94;5026554;28;20041;-62
2021/04/08 06:32:20;;;;;;;4.63;2.85;;;;;;;0.92;73.52;96006.41;5011125;28;20038;-61
2021/04/08 06:34:46;;;;;;;8.05;3.40;;;;;;;1.47;72.92;96021.94;5013307;28;20429;-66
2021/04/08 06:37:11;;;;;;;8.23;3.20;;;;;;;1.16;72.01;95985.50;5026293;28;20457;-63
2021/04/08 06:39:37;;;;;;;4.43;2.97;;;;;;;1.37;71.18;96005.16;5011000;28;20037;-63
2021/04/08 06:42:04;;;;;;;10.73;2.38;;;;;;;0.71;72.15;95971.00;5010858;28;20038;-63
2021/04/08 06:44:31;;;;;;;6.18;3.10;;;;;;;0.96;71.17;95976.09;5023458;23;20017;-78
2021/04/08 06:47:02;;;;;;;9.65;2.85;;;;;;;1.19;72.22;96037.50;5011121;28;20033;-79
2021/04/08 06:49:34;;;;;;;5.18;3.22;;;;;;;1.47;73.87;96029.81;5012902;28;20029;-74
2021/04/08 06:52:00;;;;;;;;;;;;;;;1.30;71.98;96041.97;5010404;28;20136;-74
2021/04/08 06:54:29;;;;;;;2.28;2.08;;;;;;;1.02;72.97;96029.44;4992019;28;20009;-82
2021/04/08 06:56:55;;;;;;;2.92;2.00;;;;;;;1.13;72.28;96028.69;4992065;28;20092;-75
2021/04/08 06:59:21;;;;;;;3.22;2.70;;;;;;;1.61;70.84;96046.16;4991647;28;20045;-76
2021/04/08 07:01:48;;;;;;;4.00;2.42;;;;;;;1.53;70.83;96044.63;4992950;28;20038;-73
2021/04/08 07:04:14;;;;;;;4.72;2.30;;;;;;;0.94;72.24;96027.13;4991367;28;20042;-76
2021/04/08 07:06:41;;;;;;;4.40;3.40;;;;;;;1.30;72.43;96034.09;4991051;28;20045;-76
2021/04/08 07:09:09;;;;;;;3.97;3.10;;;;;;;1.45;71.46;96034.50;4990873;28;20046;-70
2021/04/08 07:11:36;;;;;;;6.60;4.95;;;;;;;1.40;71.45;96005.53;4990738;28;20181;-71
2021/04/08 07:14:02;;;;;;;6.93;4.03;;;;;;;1.56;70.24;96040.78;4991081;28;20038;-73
2021/04/08 07:16:30;;;;;;;7.05;4.57;;;;;;;1.81;70.25;96046.66;4993052;28;20318;-74
2021/04/08 07:18:57;;;;;;;10.40;4.13;;;;;;;2.07;69.88;96066.41;4990682;28;20074;-71
2021/04/08 07:21:27;;;;;;;7.80;4.38;;;;;;;2.42;68.89;96063.00;4990107;28;20038;-70
2021/04/08 07:24:16;;;;;;;6.13;2.53;;;;;;;1.52;69.91;96082.38;4990574;28;20104;-75
2021/04/08 07:26:59;;;;;;;3.97;2.88;;;;;;;1.70;70.10;96072.88;4990868;28;20484;-75
2021/04/08 07:29:40;;;;;;;4.30;2.22;;;;;;;1.68;69.54;96072.28;4991071;28;20097;-76
2021/04/08 07:32:14;;;;;;;3.92;2.65;;;;;;;1.63;68.60;96069.53;4990745;28;20057;-77
2021/04/08 07:34:44;;;;;;;7.25;2.95;;;;;;;1.77;68.97;96069.09;4993574;28;20041;-79
2021/04/08 07:37:11;;;;;;;2.58;2.22;;;;;;;1.70;69.30;96083.34;4991353;28;20400;-78
2021/04/08 07:39:37;;;;;;;4.22;2.58;;;;;;;1.73;68.97;96078.44;4991182;28;20049;-77
2021/04/08 07:42:11;;;;;;;5.55;2.97;;;;;;;2.32;67.64;96081.94;4991114;28;20034;-80
2021/04/08 07:44:51;;;;;;;6.15;3.05;;;;;;;2.12;67.11;96076.22;4990909;28;20034;-75
2021/04/08 07:47:30;;;;;;;7.32;3.42;;;;;;;2.36;68.08;96094.63;4991139;28;20038;-78
2021/04/08 07:50:05;;;;;;;5.72;3.03;;;;;;;2.08;67.97;96091.63;4991221;28;20041;-78
2021/04/08 07:52:36;;;;;;;5.32;3.25;;;;;;;1.92;67.34;96094.91;4992548;28;20113;-78
2021/04/08 07:55:30;;;;;;;3.30;2.33;;;;;;;1.79;68.89;96106.41;4990835;28;20508;-78
2021/04/08 07:58:16;;;;;;;5.70;3.33;;;;;;;3.00;65.26;96085.72;4985407;28;20038;-80
2021/04/08 08:00:41;;;;;;;5.38;2.42;;;;;;;2.17;66.95;96107.03;4990863;28;20129;-79
2021/04/08 08:03:31;;;;;;;4.60;2.80;;;;;;;2.21;67.22;96108.19;4990298;28;20129;-76
2021/04/08 08:06:01;;;;;;;6.85;3.00;;;;;;;2.46;66.83;96084.34;4994386;28;20045;-79
2021/04/08 08:08:48;;;;;;;4.93;3.17;;;;;;;2.66;65.98;96104.97;4990914;28;20552;-76
2021/04/08 08:11:15;;;;;;;5.32;3.50;;;;;;;2.48;66.76;96087.53;4990601;28;20042;-76
2021/04/08 08:13:52;;;;;;;6.88;4.32;;;;;;;2.45;66.10;96122.13;4992698;28;20578;-76
2021/04/08 08:16:19;;;;;;;4.97;3.33;;;;;;;2.36;67.46;96105.91;4990217;28;20404;-78
2021/04/08 08:18:46;;;;;;;7.28;2.53;;;;;;;1.80;67.52;96075.75;4991056;28;20041;-77
2021/04/08 08:21:14;;;;;;;4.38;3.15;;;;;;;2.13;68.92;96129.50;4994920;28;20042;-77
2021/04/08 08:23:46;;;;;;;6.38;3.35;;;;;;;1.80;69.41;96128.19;5010279;28;20038;-80
2021/04/08 08:26:36;;;;;;;7.65;3.38;;;;;;;1.99;68.99;96139.41;4993745;28;20081;-79
2021/04/08 08:29:04;;;;;;;6.97;3.75;;;;;;;2.10;71.01;96133.41;4994877;28;20031;-82
2021/04/08 08:31:46;;;;;;;14.32;4.50;;;;;;;1.95;70.06;96125.97;4996788;28;20022;-79
2021/04/08 08:34:16;;;;;;;8.73;2.92;;;;;;;1.70;69.52;96122.69;5010085;28;20381;-81
2021/04/08 08:36:46;;;;;;;6.95;3.55;;;;;;;2.43;67.69;96142.56;5009405;28;20397;-69
2021/04/08 08:39:15;;;;;;;6.00;3.58;;;;;;;2.06;67.11;96127.00;5009454;28;20065;-77
2021/04/08 08:41:43;;;;;;;3.05;2.78;;;;;;;2.19;68.09;96150.41;4993065;28;20040;-79
2021/04/08 08:44:10;;;;;;;10.15;3.28;;;;;;;1.89;68.50;96152.28;4993819;28;20042;-72
2021/04/08 08:46:44;;;;;;;4.97;2.55;;;;;;;2.06;67.16;96151.41;4995467;28;20041;-74
2021/04/08 08:49:13;;;;;;;4.15;3.17;;;;;;;2.32;65.45;96144.16;4994241;28;20143;-74
2021/04/08 08:51:38;;;;;;;3.42;2.20;;;;;;;1.74;65.92;96153.50;4994227;28;20054;-78
2021/04/08 08:54:05;;;;;;;8.23;3.20;;;;;;;2.35;64.75;96143.69;5009423;28;20034;-77
2021/04/08 08:56:32;;;;;;;4.10;3.33;;;;;;;2.60;63.59;96165.28;4994125;28;20548;-79
2021/04/08 08:58:58;;;;;;;12.52;2.53;;;;;;;1.89;66.33;96144.41;4993881;28;20054;-77
2021/04/08 09:01:23;;;;;;;7.55;3.22;;;;;;;1.83;67.10;96138.22;4995585;28;20456;-81
2021/04/08 09:03:50;;;;;;;6.40;3.85;;;;;;;1.88;68.44;96135.72;4993794;28;20038;-78
2021/04/08 09:06:16;;;;;;;4.75;3.83;;;;;;;2.33;68.65;96151.00;4994240;28;20062;-74
2021/04/08 09:08:49;;;;;;;5.55;3.83;;;;;;;2.56;67.00;96130.00;4991823;28;20118;-78
2021/04/08 09:11:26;;;;;;;6.50;3.50;;;;;;;2.45;67.74;96151.00;4993144;28;20030;-76
2021/04/08 09:13:53;;;;;;;4.88;3.83;;;;;;;2.63;68.28;96155.38;4993628;28;20077;-64
2021/04/08 09:16:19;;;;;;;4.68;3.40;;;;;;;2.46;66.35;96150.78;4995144;28;20030;-75
2021/04/08 09:18:57;;;;;;;6.72;3.80;;;;;;;2.76;66.76;96147.22;4993390;28;20031;-76
2021/04/08 09:21:23;;;;;;;6.30;3.63;;;;;;;2.73;66.10;96143.25;4993188;28;20038;-76
2021/04/08 09:24:25;;;;;;;6.60;3.30;;;;;;;2.70;61.99;96122.69;4993266;28;20030;-77
2021/04/08 09:26:57;;;;;;;3.53;2.90;;;;;;;3.03;62.05;96147.56;4983358;28;20027;-77
2021/04/08 09:29:35;;;;;;;4.78;3.50;;;;;;;3.70;62.25;96142.56;4993811;28;20488;-81
2021/04/08 09:32:35;;;;;;;5.53;3.40;;;;;;;3.76;60.07;96141.63;4993129;28;20149;-77
2021/04/08 09:35:12;;;;;;;7.80;3.95;;;;;;;3.99;58.80;96124.09;4993308;28;20041;-77
2021/04/08 09:37:44;;;;;;;3.88;3.05;;;;;;;3.36;58.81;96157.41;4995495;28;20404;-80
2021/04/08 09:40:51;;;;;;;6.25;3.83;;;;;;;3.64;58.43;96152.19;4993737;28;20080;-80
2021/04/08 09:43:21;;;;;;;7.13;3.33;;;;;;;3.31;58.48;96138.91;4992801;28;20042;-81
2021/04/08 09:46:10;;;;;;;2.65;2.35;;;;;;;2.89;60.74;96151.47;4993742;28;20038;-80
2021/04/08 09:48:49;;;;;;;5.43;4.07;;;;;;;3.86;59.33;96149.69;4993694;28;20050;-80
2021/04/08 09:51:30;;;;;;;5.15;3.67;;;;;;;3.61;57.63;96134.25;4993429;28;20034;-79
2021/04/08 09:53:59;;;;;;;5.18;3.90;;;;;;;4.63;58.38;96146.47;4993467;28;20031;-80
2021/04/08 09:56:45;;;;;;;7.75;3.60;;;;;;;3.77;56.72;96145.84;4993702;28;20089;-79
2021/04/08 09:59:11;;;;;;;4.55;2.97;;;;;;;3.69;56.66;96142.81;4993526;28;20034;-71
2021/04/08 10:01:37;;;;;;;4.57;3.40;;;;;;;3.91;57.75;96136.63;5010050;28;20029;-76
2021/04/08 10:04:24;;;;;;;6.05;3.20;;;;;;;3.61;57.02;96139.50;4992240;28;20038;-72
2021/04/08 10:07:07;;;;;;;4.70;3.17;;;;;;;3.46;58.48;96151.56;4992411;28;20496;-81
2021/04/08 10:09:33;;;;;;;4.65;2.88;;;;;;;3.25;59.51;96156.44;4993595;28;20042;-84
2021/04/08 10:11:59;;;;;;;4.82;2.35;;;;;;;3.16;57.63;96131.53;4993827;28;20038;-81
2021/04/08 10:14:28;;;;;;;8.45;2.53;;;;;;;2.98;57.46;96140.38;4993847;28;20042;-81
2021/04/08 10:17:03;;;;;;;5.43;3.33;;;;;;;3.75;58.41;96147.91;4993326;28;20030;-83
2021/04/08 10:19:41;;;;;;;7.43;3.47;;;;;;;3.71;57.37;96146.78;4995588;28;20042;-82
2021/04/08 10:22:09;;;;;;;4.18;3.20;;;;;;;4.21;56.62;96134.75;4992672;28;20042;-73
2021/04/08 10:24:43;;;;;;;5.25;3.38;;;;;;;4.35;55.59;96133.38;4992255;28;20046;-68
2021/04/08 10:27:13;;;;;;;4.07;3.17;;;;;;;4.86;54.25;96131.47;4991980;28;20092;-71
2021/04/08 10:29:39;;;;;;;4.60;2.95;;;;;;;3.13;58.08;96142.53;4992127;28;20125;-73
2021/04/08 10:32:05;;;;;;;4.85;3.20;;;;;;;3.22;57.74;96135.03;4991543;28;20054;-73
2021/04/08 10:34:35;;;;;;;6.85;3.28;;;;;;;3.47;59.18;96134.75;4994076;28;20064;-76
2021/04/08 10:37:02;;;;;;;4.28;3.03;;;;;;;4.37;56.22;96133.94;4991065;28;20100;-79
2021/04/08 10:39:34;;;;;;;4.95;3.50;;;;;;;3.78;56.04;96130.84;4990996;28;20058;-67
2021/04/08 10:42:08;;;;;;;4.13;2.28;;;;;;;3.14;56.15;96109.94;4991123;28;20109;-76
2021/04/08 10:44:33;;;;;;;3.88;3.15;;;;;;;3.96;55.64;96133.28;4991636;28;20400;-75
2021/04/08 10:47:06;;;;;;;5.10;3.15;;;;;;;4.23;53.66;96124.75;4991479;28;20026;-69
2021/04/08 10:49:36;;;;;;;6.97;3.47;;;;;;;4.95;53.61;96130.03;4993026;28;20026;-74
2021/04/08 10:52:09;;;;;;;4.18;2.97;;;;;;;5.36;52.05;96133.16;5005915;28;20042;-69
2021/04/08 10:54:38;;;;;;;8.60;2.80;;;;;;;4.54;52.83;96115.47;4992132;28;20038;-81
2021/04/08 10:57:05;;;;;;;6.68;3.47;;;;;;;4.65;52.76;96122.50;4991614;28;20503;-74
2021/04/08 10:59:31;;;;;;;5.10;3.60;;;;;;;4.81;51.27;96107.69;4991903;28;20125;-77
2021/04/08 11:01:58;;;;;;;5.68;3.55;;;;;;;5.00;51.65;96130.09;4991738;28;20054;-74
2021/04/08 11:04:24;;;;;;;5.07;3.15;;;;;;;4.50;52.97;96130.97;4992987;28;20040;-75
2021/04/08 11:06:51;;;;;;;5.95;3.70;;;;;;;4.55;52.43;96133.69;5006448;28;20389;-78
2021/04/08 11:09:27;;;;;;;7.15;3.00;;;;;;;4.20;52.72;96127.84;4991953;28;20094;-76
2021/04/08 11:11:55;;;;;;;9.73;3.47;;;;;;;4.99;51.83;96127.72;4991405;28;20072;-79
2021/04/08 11:14:27;;;;;;;7.20;3.97;;;;;;;5.39;49.82;96130.06;4991572;28;20085;-76
2021/04/08 11:16:57;;;;;;;4.50;2.80;;;;;;;4.70;51.14;96127.84;4991380;28;20030;-78
2021/04/08 11:19:23;;;;;;;5.47;2.85;;;;;;;4.94;51.24;96121.31;4993212;28;20015;-77
2021/04/08 11:21:50;;;;;;;3.25;2.85;;;;;;;5.40;49.96;96111.31;4989542;28;20027;-79
2021/04/08 11:24:17;;;;;;;7.00;3.35;;;;;;;5.83;49.69;96116.78;4991382;28;20126;-76
2021/04/08 11:26:49;;;;;;;6.32;2.95;;;;;;;7.06;46.45;96114.00;4991468;28;20026;-78
2021/04/08 11:29:23;;;;;;;3.83;3.53;;;;;;;6.58;48.24;96113.19;4992147;28;20097;-79
2021/04/08 11:32:05;;;;;;;3.33;2.70;;;;;;;5.33;49.91;96123.91;4993398;28;20033;-80
2021/04/08 11:34:47;;;;;;;3.80;3.40;;;;;;;4.84;51.00;96123.03;4992517;28;20064;-81
2021/04/08 11:37:15;;;;;;;5.45;3.17;;;;;;;5.18;50.59;96111.34;4991593;28;20372;-80
2021/04/08 11:39:44;;;;;;;6.25;3.88;;;;;;;6.81;47.63;96100.63;4992065;28;20046;-80
2021/04/08 11:42:22;;;;;;;4.07;3.20;;;;;;;5.87;49.42;96112.59;4991312;28;20048;-82
2021/04/08 11:44:50;;;;;;;4.63;3.20;;;;;;;5.09;50.76;96114.66;4991701;28;20101;-83
2021/04/08 11:47:18;;;;;;;9.60;3.72;;;;;;;6.53;48.78;96099.94;4991068;28;20412;-79
2021/04/08 11:49:52;;;;;;;6.00;4.38;;;;;;;6.11;52.08;96111.25;4993224;28;20065;-77
2021/04/08 11:52:27;;;;;;;5.57;3.58;;;;;;;5.47;53.56;96105.84;4990808;28;20053;-79